Bontekoning — PH9144 — position and weather

sailwx.info

Track history (hours):
 
Tides and Currents Weather Stations Pressure Air Temp Water Temp Dewpoint Dewpoint Depression Visibility Wind Speed Wind Dir Waves Ship Positions

Bontekoning

Last reported at 2015-Nov-26 12:08 UTC. Time now 2016-Feb-13 10:55 UTC.
Position N 28°07' W 014°09'.
Warning: this ship's position is months out of date.

; draft 2.6 m.

Type: Sailing vessel. MMSI: 244107000.

Date/timePositionNaut miles runAvg speedWind from/ knotsBaromVisibWave heightAir tempDewpointWater temp
2015-Nov-26 12:08N 28°07' W 014°09'  
2015-Nov-20 23:25N 30°25' W 009°37'0 0.0
2015-Nov-20 21:25N 30°25' W 009°37'0 0.0
2015-Nov-20 15:09N 30°25' W 009°37'12 4.0
2015-Nov-20 12:11N 30°33' W 009°47'2 3.8
2015-Nov-20 11:33N 30°34' W 009°49'37 4.6
2015-Nov-20 03:32N 31°11' W 009°56'48 6.8
2015-Nov-19 20:31N 31°56' W 009°37'21 7.1
2015-Nov-19 17:31N 32°11' W 009°20'18 7.5
2015-Nov-19 15:03N 32°30' W 009°18'3 7.0
2015-Nov-19 14:33N 32°33' W 009°18'7 6.9
2015-Nov-19 13:33N 32°39' W 009°13'63 6.2
2015-Nov-19 03:30N 33°26' W 008°23'5 5.7
2015-Nov-19 02:33N 33°30' W 008°19'9 6.0
2015-Nov-19 01:05N 33°36' W 008°11'4 6.0
2015-Nov-19 00:31N 33°38' W 008°08'6 6.1
2015-Nov-18 23:30N 33°43' W 008°03'6 6.3
2015-Nov-18 22:33N 33°47' W 007°58'8 5.0
2015-Nov-18 21:03N 33°51' W 007°51'3 4.9
2015-Nov-18 20:29N 33°53' W 007°48'27 6.9
2015-Nov-18 16:33N 34°11' W 007°24'7 6.9
2015-Nov-18 15:30N 34°16' W 007°17'125 6.0
2015-Nov-17 18:31N 35°52' W 005°40'8 6.5
2015-Nov-17 17:13N 35°56' W 005°31'4 5.6
2015-Nov-17 16:33N 35°59' W 005°28'6 5.8
2015-Nov-17 15:33N 36°04' W 005°25'5 1.6
2015-Nov-17 12:33N 36°08' W 005°22'0 0.2
2015-Nov-17 11:33N 36°08' W 005°21'0 0.0
2015-Nov-17 10:34N 36°08' W 005°21'0 0.0
2015-Nov-17 09:34N 36°08' W 005°21'0 0.0
2015-Nov-17 08:33N 36°08' W 005°21'0 0.0
2015-Nov-17 07:34N 36°08' W 005°21'0 0.0
2015-Nov-17 06:33N 36°08' W 005°21'0 0.0
2015-Nov-17 05:33N 36°08' W 005°21'0 0.0
2015-Nov-17 04:33N 36°08' W 005°21'0 0.0
2015-Nov-17 03:33N 36°08' W 005°21'0 0.0
2015-Nov-17 02:34N 36°08' W 005°21'0 0.0
2015-Nov-17 01:33N 36°08' W 005°21'0 0.0
2015-Nov-17 00:34N 36°08' W 005°21'0 0.0
2015-Nov-16 23:33N 36°08' W 005°21'0 0.0
2015-Nov-16 22:34N 36°08' W 005°21'0 0.0
2015-Nov-16 21:34N 36°08' W 005°21'0 0.0
2015-Nov-16 20:33N 36°08' W 005°21'0 0.0
2015-Nov-16 19:33N 36°08' W 005°21'0 0.0
2015-Nov-16 18:33N 36°08' W 005°21'0 0.0
2015-Nov-16 17:33N 36°08' W 005°21'0 0.0
2015-Nov-16 16:34N 36°08' W 005°21'0 0.0
2015-Nov-16 15:34N 36°08' W 005°21'0 0.0
2015-Nov-16 14:34N 36°08' W 005°21'0 0.0
2015-Nov-16 13:34N 36°08' W 005°21'0 0.0
2015-Nov-16 12:33N 36°08' W 005°21'  
Track history (hours):
 
Tides and Currents Weather Stations Pressure Air Temp Water Temp Dewpoint Dewpoint Depression Visibility Wind Speed Wind Dir Waves Ship Positions

Bontekoning

Last reported at 2015-Nov-26 12:08 UTC. Time now 2016-Feb-13 10:55 UTC.
Position N 28°07' W 014°09'.
Warning: this ship's position is months out of date.

; draft 2.6 m.

Type: Sailing vessel. MMSI: 244107000.

Date/timePositionNaut miles runAvg speedWind from/ knotsBaromVisibWave heightAir tempDewpointWater temp
2015-Nov-26 12:08N 28°07' W 014°09'  
2015-Nov-20 23:25N 30°25' W 009°37'0 0.0
2015-Nov-20 21:25N 30°25' W 009°37'0 0.0
2015-Nov-20 15:09N 30°25' W 009°37'12 4.0
2015-Nov-20 12:11N 30°33' W 009°47'2 3.8
2015-Nov-20 11:33N 30°34' W 009°49'37 4.6
2015-Nov-20 03:32N 31°11' W 009°56'48 6.8
2015-Nov-19 20:31N 31°56' W 009°37'21 7.1
2015-Nov-19 17:31N 32°11' W 009°20'18 7.5
2015-Nov-19 15:03N 32°30' W 009°18'3 7.0
2015-Nov-19 14:33N 32°33' W 009°18'7 6.9
2015-Nov-19 13:33N 32°39' W 009°13'63 6.2
2015-Nov-19 03:30N 33°26' W 008°23'5 5.7
2015-Nov-19 02:33N 33°30' W 008°19'9 6.0
2015-Nov-19 01:05N 33°36' W 008°11'4 6.0
2015-Nov-19 00:31N 33°38' W 008°08'6 6.1
2015-Nov-18 23:30N 33°43' W 008°03'6 6.3
2015-Nov-18 22:33N 33°47' W 007°58'8 5.0
2015-Nov-18 21:03N 33°51' W 007°51'3 4.9
2015-Nov-18 20:29N 33°53' W 007°48'27 6.9
2015-Nov-18 16:33N 34°11' W 007°24'7 6.9
2015-Nov-18 15:30N 34°16' W 007°17'125 6.0
2015-Nov-17 18:31N 35°52' W 005°40'8 6.5
2015-Nov-17 17:13N 35°56' W 005°31'4 5.6
2015-Nov-17 16:33N 35°59' W 005°28'6 5.8
2015-Nov-17 15:33N 36°04' W 005°25'5 1.6
2015-Nov-17 12:33N 36°08' W 005°22'0 0.2
2015-Nov-17 11:33N 36°08' W 005°21'0 0.0
2015-Nov-17 10:34N 36°08' W 005°21'0 0.0
2015-Nov-17 09:34N 36°08' W 005°21'0 0.0
2015-Nov-17 08:33N 36°08' W 005°21'0 0.0
2015-Nov-17 07:34N 36°08' W 005°21'0 0.0
2015-Nov-17 06:33N 36°08' W 005°21'0 0.0
2015-Nov-17 05:33N 36°08' W 005°21'0 0.0
2015-Nov-17 04:33N 36°08' W 005°21'0 0.0
2015-Nov-17 03:33N 36°08' W 005°21'0 0.0
2015-Nov-17 02:34N 36°08' W 005°21'0 0.0
2015-Nov-17 01:33N 36°08' W 005°21'0 0.0
2015-Nov-17 00:34N 36°08' W 005°21'0 0.0
2015-Nov-16 23:33N 36°08' W 005°21'0 0.0
2015-Nov-16 22:34N 36°08' W 005°21'0 0.0
2015-Nov-16 21:34N 36°08' W 005°21'0 0.0
2015-Nov-16 20:33N 36°08' W 005°21'0 0.0
2015-Nov-16 19:33N 36°08' W 005°21'0 0.0
2015-Nov-16 18:33N 36°08' W 005°21'0 0.0
2015-Nov-16 17:33N 36°08' W 005°21'0 0.0
2015-Nov-16 16:34N 36°08' W 005°21'0 0.0
2015-Nov-16 15:34N 36°08' W 005°21'0 0.0
2015-Nov-16 14:34N 36°08' W 005°21'0 0.0
2015-Nov-16 13:34N 36°08' W 005°21'0 0.0
2015-Nov-16 12:33N 36°08' W 005°21'  

Dump ship's entire track history